Time;durP1;ratioP1;P1;durP2;ratioP2;P2;SDS_P1;SDS_P2;PMS_P1;PMS_P2;Temp;Humidity;BMP_temperature;BMP_pressure;BME280_temperature;BME280_humidity;BME280_pressure;Samples;Min_cycle;Max_cycle;Signal;HPM_P1;HPM_P2
2023/04/19 00:02:17;;;;;;;;;;;;;;;11.74;81.88;100353.69;6176927;23;20312;-83
2023/04/19 00:04:47;;;;;;;;;;;;;;;11.48;82.27;100356.66;6152694;23;20389;-84
2023/04/19 00:07:12;;;;;;;;;;;;;;;11.48;82.39;100347.75;6176936;23;20294;-83
2023/04/19 00:09:38;;;;;;;;;;;;;;;11.37;83.07;100351.66;6177614;23;19919;-82
2023/04/19 00:12:03;;;;;;;;;;;;;;;11.46;82.53;100344.38;6177618;23;19916;-83
2023/04/19 00:14:29;;;;;;;;;;;;;;;11.42;83.01;100343.88;6153993;23;19938;-82
2023/04/19 00:16:54;;;;;;;;;;;;;;;11.50;82.90;100334.97;6178038;23;19923;-88
2023/04/19 00:19:21;;;;;;;;;;;;;;;11.43;82.95;100334.81;6224404;23;19960;-82
2023/04/19 00:21:49;;;;;;;;;;;;;;;11.41;82.76;100336.84;6240012;23;19920;-83
2023/04/19 00:24:14;;;;;;;;;;;;;;;11.51;82.19;100342.00;6212665;23;19919;-83
2023/04/19 00:26:40;;;;;;;;;;;;;;;11.50;82.19;100337.66;6213478;23;19919;-82
2023/04/19 00:29:05;;;;;;;;;;;;;;;11.57;81.94;100331.38;6240941;23;19920;-83
2023/04/19 00:31:30;;;;;;;;;;;;;;;11.57;81.94;100336.75;6240824;23;20303;-83
2023/04/19 00:33:56;;;;;;;;;;;;;;;11.55;82.02;100336.09;6187869;23;19916;-82
2023/04/19 00:36:21;;;;;;;;;;;;;;;11.61;82.45;100332.72;6241662;23;19994;-82
2023/04/19 00:38:47;;;;;;;;;;;;;;;11.48;83.33;100335.13;6242053;23;19912;-84
2023/04/19 00:41:16;;;;;;;;;;;;;;;11.62;83.18;100338.94;6251539;23;19920;-83
2023/04/19 00:43:41;;;;;;;;;;;;;;;11.51;83.45;100342.00;6248724;23;20333;-80
2023/04/19 00:46:07;;;;;;;;;;;;;;;11.46;83.71;100342.53;6223199;23;19919;-81
2023/04/19 00:48:34;;;;;;;;;;;;;;;11.46;83.60;100334.47;6245277;23;20252;-83
2023/04/19 00:51:00;;;;;;;;;;;;;;;11.61;83.12;100337.25;6243709;23;19916;-82
2023/04/19 00:53:26;;;;;;;;;;;;;;;11.62;82.76;100339.75;6215638;23;19918;-84
2023/04/19 00:55:53;;;;;;;;;;;;;;;11.57;84.59;100341.31;6240600;23;20017;-82
2023/04/19 00:58:19;;;;;;;;;;;;;;;11.54;85.41;100339.81;6240910;23;19919;-84
2023/04/19 01:00:44;;;;;;;;;;;;;;;11.44;85.60;100332.94;6214129;23;19915;-84
2023/04/19 01:03:12;;;;;;;;;;;;;;;11.33;87.10;100334.16;6215420;23;19915;-84
2023/04/19 01:05:37;;;;;;;;;;;;;;;11.35;86.74;100332.13;6257163;23;19919;-85
2023/04/19 01:08:02;;;;;;;;;;;;;;;11.31;86.68;100333.53;6245841;23;20063;-84
2023/04/19 01:10:29;;;;;;;;;;;;;;;11.19;88.43;100327.66;6240662;23;19987;-85
2023/04/19 01:12:54;;;;;;;;;;;;;;;11.09;88.99;100327.84;6213675;23;19919;-84
2023/04/19 01:15:21;;;;;;;;;;;;;;;11.05;89.67;100320.28;6215145;23;19915;-85
2023/04/19 01:17:49;;;;;;;;;;;;;;;11.15;89.47;100321.78;6214011;23;19951;-86
2023/04/19 01:20:16;;;;;;;;;;;;;;;11.07;90.38;100318.28;6240741;23;20435;-84
2023/04/19 01:22:42;;;;;;;;;;;;;;;11.03;90.45;100320.47;6240858;23;19912;-84
2023/04/19 01:25:08;;;;;;;;;;;;;;;11.02;91.08;100321.47;6241714;23;19991;-84
2023/04/19 01:27:33;;;;;;;;;;;;;;;10.99;90.98;100321.81;6246988;23;19922;-84
2023/04/19 01:29:59;;;;;;;;;;;;;;;10.97;91.15;100323.84;6242007;23;19923;-84
2023/04/19 01:32:25;;;;;;;;;;;;;;;11.06;91.33;100316.59;6241468;23;19915;-84
2023/04/19 01:34:51;;;;;;;;;;;;;;;11.15;91.04;100316.41;6240022;23;19977;-85
2023/04/19 01:37:16;;;;;;;;;;;;;;;11.03;90.58;100307.03;6213337;23;19912;-84
2023/04/19 01:39:41;;;;;;;;;;;;;;;11.17;90.79;100314.38;6215880;23;19911;-84
2023/04/19 01:42:07;;;;;;;;;;;;;;;11.04;91.07;100305.19;6188873;23;20197;-83
2023/04/19 01:44:33;;;;;;;;;;;;;;;11.06;90.82;100306.69;6212686;23;19911;-84
2023/04/19 01:46:59;;;;;;;;;;;;;;;11.23;91.10;100301.25;6241112;23;19920;-84
2023/04/19 01:49:25;;;;;;;;;;;;;;;11.24;90.13;100311.84;6214917;23;20414;-85
2023/04/19 01:51:51;;;;;;;;;;;;;;;11.19;90.02;100301.59;6214171;23;19943;-85
2023/04/19 01:54:17;;;;;;;;;;;;;;;11.09;90.51;100303.63;6213878;23;19935;-85
2023/04/19 01:56:42;;;;;;;;;;;;;;;11.26;89.96;100306.28;6241258;23;20056;-84
2023/04/19 01:59:08;;;;;;;;;;;;;;;11.19;90.28;100314.19;6215193;23;19911;-85
2023/04/19 02:01:33;;;;;;;;;;;;;;;11.24;90.22;100314.53;6188925;23;19930;-84
2023/04/19 02:03:59;;;;;;;;;;;;;;;11.13;89.62;100313.03;6239298;23;19927;-84
2023/04/19 02:06:27;;;;;;;;;;;;;;;11.17;90.97;100314.38;6241176;23;20287;-83
2023/04/19 02:08:52;;;;;;;;;;;;;;;11.15;91.12;100315.56;6240600;23;19918;-84
2023/04/19 02:11:17;;;;;;;;;;;;;;;11.09;90.83;100310.88;6240982;23;19912;-83
2023/04/19 02:13:43;;;;;;;;;;;;;;;11.10;91.35;100308.03;6214132;23;20315;-83
2023/04/19 02:16:11;;;;;;;;;;;;;;;11.28;91.24;100309.63;6214410;23;20025;-82
2023/04/19 02:18:38;;;;;;;;;;;;;;;11.16;91.16;100299.22;6214695;23;20201;-82
2023/04/19 02:21:03;;;;;;;;;;;;;;;11.37;90.73;100304.03;6240305;23;20330;-84
2023/04/19 02:23:29;;;;;;;;;;;;;;;11.44;89.58;100304.19;6240855;23;19938;-83
2023/04/19 02:25:57;;;;;;;;;;;;;;;11.51;88.73;100291.69;6219552;23;20145;-85
2023/04/19 02:28:23;;;;;;;;;;;;;;;11.59;88.96;100288.13;6253878;23;19938;-84
2023/04/19 02:30:48;;;;;;;;;;;;;;;11.62;89.13;100285.09;6248593;23;19982;-83
2023/04/19 02:33:14;;;;;;;;;;;;;;;11.51;89.74;100299.75;6241990;23;19950;-83
2023/04/19 02:35:42;;;;;;;;;;;;;;;11.50;89.89;100291.88;6242487;23;19995;-83
2023/04/19 02:38:08;;;;;;;;;;;;;;;11.47;89.64;100297.59;6213605;23;19916;-82
2023/04/19 02:40:36;;;;;;;;;;;;;;;11.55;88.44;100290.34;6214832;23;19970;-85
2023/04/19 02:43:04;;;;;;;;;;;;;;;11.37;88.54;100289.75;6238540;23;19919;-82
2023/04/19 02:45:32;;;;;;;;;;;;;;;11.53;88.29;100286.97;6214545;23;19938;-84
2023/04/19 02:47:58;;;;;;;;;;;;;;;11.57;87.85;100282.91;6240847;23;19918;-83
2023/04/19 02:50:25;;;;;;;;;;;;;;;11.50;87.82;100281.13;6241720;23;19942;-83
2023/04/19 02:52:53;;;;;;;;;;;;;;;11.50;86.83;100273.88;6214765;23;19920;-83
2023/04/19 02:55:19;;;;;;;;;;;;;;;11.50;87.37;100279.25;6240741;23;19915;-83
2023/04/19 02:57:47;;;;;;;;;;;;;;;11.56;86.84;100283.91;6238047;23;20011;-83
2023/04/19 03:00:13;;;;;;;;;;;;;;;11.62;87.02;100283.22;6212825;23;19912;-83
2023/04/19 03:02:42;;;;;;;;;;;;;;;11.66;87.31;100281.03;6241607;23;20316;-83
2023/04/19 03:05:09;;;;;;;;;;;;;;;11.55;86.12;100287.63;6240693;23;19961;-84
2023/04/19 03:07:35;;;;;;;;;;;;;;;11.67;86.73;100285.38;6241133;23;20328;-82
2023/04/19 03:10:02;;;;;;;;;;;;;;;11.64;86.07;100284.91;6213653;23;19912;-83
2023/04/19 03:12:28;;;;;;;;;;;;;;;11.59;87.16;100280.06;6236435;23;19912;-82
2023/04/19 03:14:54;;;;;;;;;;;;;;;11.58;88.50;100281.88;6240082;23;20046;-84
2023/04/19 03:17:20;;;;;;;;;;;;;;;11.66;88.13;100281.03;6212106;23;19912;-84
2023/04/19 03:19:46;;;;;;;;;;;;;;;11.64;87.53;100276.84;6238918;23;19912;-84
2023/04/19 03:22:12;;;;;;;;;;;;;;;11.70;87.45;100276.09;6239836;23;19907;-83
2023/04/19 03:24:39;;;;;;;;;;;;;;;11.67;87.45;100273.78;6213858;23;19915;-82
2023/04/19 03:27:05;;;;;;;;;;;;;;;11.48;88.05;100280.44;6214553;23;19947;-81
2023/04/19 03:29:37;;;;;;;;;;;;;;;11.56;87.86;100283.09;6242811;23;19998;-82
2023/04/19 03:32:24;;;;;;;;;;;;;;;11.73;87.37;100282.00;6243928;23;19989;-84
2023/04/19 03:34:55;;;;;;;;;;;;;;;11.71;86.92;100278.63;6214439;23;20100;-83
2023/04/19 03:37:21;;;;;;;;;;;;;;;11.67;86.79;100279.16;6239987;23;20280;-82
2023/04/19 03:39:46;;;;;;;;;;;;;;;11.72;86.83;100279.47;6212879;23;20301;-83
2023/04/19 03:42:11;;;;;;;;;;;;;;;11.76;86.35;100280.78;6242002;23;20001;-83
2023/04/19 03:44:45;;;;;;;;;;;;;;;11.83;86.19;100276.38;6215989;23;19918;-82
2023/04/19 03:47:30;;;;;;;;;;;;;;;11.83;86.06;100281.75;6243116;23;20355;-84
2023/04/19 03:49:56;;;;;;;;;;;;;;;11.90;86.30;100281.91;6242232;23;19911;-83
2023/04/19 03:52:21;;;;;;;;;;;;;;;11.74;86.86;100282.81;6214571;23;20277;-80
2023/04/19 03:54:48;;;;;;;;;;;;;;;11.85;86.20;100279.72;6241027;23;19998;-82
2023/04/19 03:57:16;;;;;;;;;;;;;;;11.90;86.21;100290.00;6239047;23;19998;-83
2023/04/19 03:59:42;;;;;;;;;;;;;;;11.90;85.36;100284.63;6239091;23;19911;-83
2023/04/19 04:02:07;;;;;;;;;;;;;;;11.99;84.44;100289.75;6213575;23;19911;-81
2023/04/19 04:04:32;;;;;;;;;;;;;;;11.87;85.49;100282.22;6212896;23;19922;-84
2023/04/19 04:06:59;;;;;;;;;;;;;;;11.89;84.70;100285.63;6214262;23;20038;-81
2023/04/19 04:09:24;;;;;;;;;;;;;;;11.87;85.77;100287.63;6191674;23;19934;-81
2023/04/19 04:11:49;;;;;;;;;;;;;;;11.92;85.18;100285.28;6239981;23;19912;-85
2023/04/19 04:14:15;;;;;;;;;;;;;;;11.90;85.96;100290.84;6213174;23;19911;-82
2023/04/19 04:16:40;;;;;;;;;;;;;;;12.04;85.50;100287.38;6188618;23;19990;-82
2023/04/19 04:19:06;;;;;;;;;;;;;;;12.10;85.70;100287.66;6214672;23;19911;-85
2023/04/19 04:21:32;;;;;;;;;;;;;;;12.16;85.71;100286.94;6216091;23;19923;-85
2023/04/19 04:24:00;;;;;;;;;;;;;;;12.15;84.42;100283.41;6210551;23;20321;-87
2023/04/19 04:26:29;;;;;;;;;;;;;;;12.05;84.72;100290.88;6211199;23;20273;-83
2023/04/19 04:28:55;;;;;;;;;;;;;;;11.93;84.45;100284.25;6181699;23;20329;-83
2023/04/19 04:31:20;;;;;;;;;;;;;;;12.03;83.98;100288.41;6207574;23;19912;-84
2023/04/19 04:33:45;;;;;;;;;;;;;;;12.13;84.90;100284.63;6208382;23;19996;-85
2023/04/19 04:36:12;;;;;;;;;;;;;;;12.17;84.50;100288.59;6209277;23;19998;-88
2023/04/19 04:38:40;;;;;;;;;;;;;;;12.20;82.97;100282.88;6185916;23;19912;-84
2023/04/19 06:57:02;;;;;;;;;;;;;;;12.43;83.07;100343.00;6355677;22;19922;-90
2023/04/19 06:59:38;;;;;;;;;;;;;;;12.38;82.90;100341.84;6309227;22;19918;-93
2023/04/19 07:02:32;;;;;;;;;;;;;;;12.44;84.05;100344.66;6357361;22;19915;-90
2023/04/19 07:05:01;;;;;;;;;;;;;;;12.57;82.78;100343.22;6344139;22;19907;-88
2023/04/19 07:07:33;;;;;;;;;;;;;;;12.73;82.32;100343.06;6344947;22;19940;-87
2023/04/19 07:09:59;;;;;;;;;;;;;;;12.72;81.60;100345.97;6326027;22;19911;-90
2023/04/19 07:12:27;;;;;;;;;;;;;;;12.75;82.19;100345.59;6332713;22;20440;-90
2023/04/19 07:14:55;;;;;;;;;;;;;;;12.66;82.48;100351.03;6331951;22;19914;-89
2023/04/19 07:17:24;;;;;;;;;;;;;;;12.87;82.76;100349.50;6326466;22;19915;-88
2023/04/19 07:19:49;;;;;;;;;;;;;;;13.14;81.71;100355.34;6312098;22;19911;-87
2023/04/19 07:22:14;;;;;;;;;;;;;;;13.27;80.49;100355.50;6283735;22;19932;-84
2023/04/19 07:24:43;;;;;;;;;;;;;;;13.18;80.04;100351.22;6308034;22;19906;-90
2023/04/19 07:27:10;;;;;;;;;;;;;;;13.38;79.99;100365.06;6284382;22;19911;-92
2023/04/19 07:29:36;;;;;;;;;;;;;;;13.41;78.69;100361.97;6337138;22;19937;-90
2023/04/19 07:32:03;;;;;;;;;;;;;;;13.58;77.29;100368.88;6308705;22;20272;-88
2023/04/19 07:34:28;;;;;;;;;;;;;;;13.74;77.17;100370.50;6306680;22;20353;-86
2023/04/19 07:40:18;;;;;;;;;;;;;;;13.98;77.48;100366.66;6339821;22;19918;-89
2023/04/19 07:58:09;;;;;;;;;;;;;;;13.70;75.67;100383.56;6336904;22;19922;-90
2023/04/19 08:00:48;;;;;;;;;;;;;;;13.84;75.43;100378.34;6313296;22;19979;-90
2023/04/19 08:03:46;;;;;;;;;;;;;;;13.69;76.67;100384.56;6310380;22;20018;-89
2023/04/19 08:06:21;;;;;;;;;;;;;;;13.37;77.32;100387.66;6337921;22;20311;-90
2023/04/19 08:12:01;;;;;;;;;;;;;;;13.10;78.90;100382.69;6337463;22;19967;-89
2023/04/19 08:14:31;;;;;;;;;;;;;;;13.13;78.91;100386.88;6286010;22;19966;-89
2023/04/19 08:16:57;;;;;;;;;;;;;;;13.17;79.08;100390.88;6308726;22;20308;-85
2023/04/19 08:19:23;;;;;;;;;;;;;;;12.82;81.08;100393.22;6333023;22;19958;-84
2023/04/19 08:21:48;;;;;;;;;;;;;;;12.74;81.55;100392.47;6309055;22;20236;-86
2023/04/19 08:24:19;;;;;;;;;;;;;;;12.75;81.50;100397.69;6335369;22;19910;-87
2023/04/19 08:26:52;;;;;;;;;;;;;;;12.71;82.42;100396.34;6333612;22;19911;-86
2023/04/19 08:29:19;;;;;;;;;;;;;;;12.73;82.99;100405.09;6337595;22;20353;-86
2023/04/19 08:31:45;;;;;;;;;;;;;;;12.65;82.17;100400.63;6308606;22;19972;-85
2023/04/19 08:34:16;;;;;;;;;;;;;;;12.52;83.60;100400.38;6336222;22;19945;-86
2023/04/19 08:36:42;;;;;;;;;;;;;;;12.61;84.61;100393.91;6335986;22;20275;-87
2023/04/19 08:39:07;;;;;;;;;;;;;;;12.79;84.59;100398.16;6307512;22;20348;-88
2023/04/19 08:41:35;;;;;;;;;;;;;;;12.55;82.00;100396.47;6306662;22;19917;-85
2023/04/19 08:44:02;;;;;;;;;;;;;;;12.21;82.13;100397.75;6337409;22;20014;-85
2023/04/19 08:46:28;;;;;;;;;;;;;;;12.02;82.62;100399.88;6284364;22;19910;-85
2023/04/19 08:48:55;;;;;;;;;;;;;;;11.99;82.52;100399.41;6343022;22;19976;-86
2023/04/19 08:51:20;;;;;;;;;;;;;;;12.15;82.92;100401.13;6310421;22;19906;-87
2023/04/19 08:53:49;;;;;;;;;;;;;;;12.16;82.81;100390.19;6338782;22;19910;-87
2023/04/19 08:56:15;;;;;;;;;;;;;;;12.31;82.46;100395.63;6340079;22;19911;-86
2023/04/19 08:58:42;;;;;;;;;;;;;;;12.31;81.97;100392.13;6304020;22;19919;-85
2023/04/19 09:01:10;;;;;;;;;;;;;;;12.42;81.99;100395.22;6302677;22;20014;-87
2023/04/19 09:03:45;;;;;;;;;;;;;;;12.54;80.43;100390.25;6305938;22;19911;-86
2023/04/19 09:06:11;;;;;;;;;;;;;;;12.58;80.73;100394.28;6300288;22;19994;-87
2023/04/19 09:08:36;;;;;;;;;;;;;;;12.66;80.82;100401.47;6303830;22;20310;-85
2023/04/19 09:11:05;;;;;;;;;;;;;;;12.96;79.01;100390.75;6303908;22;19938;-86
2023/04/19 09:13:39;;;;;;;;;;;;;;;13.09;77.93;100397.22;6305112;22;20332;-85
2023/04/19 09:16:07;;;;;;;;;;;;;;;13.22;76.32;100395.72;6322832;22;19960;-89
2023/04/19 09:18:34;;;;;;;;;;;;;;;13.63;75.98;100403.41;6330467;22;19921;-85
2023/04/19 09:20:59;;;;;;;;;;;;;;;14.03;74.20;100401.22;6321721;22;19946;-87
2023/04/19 09:23:30;;;;;;;;;;;;;;;13.99;73.31;100403.44;6304456;22;19915;-86
2023/04/19 09:26:00;;;;;;;;;;;;;;;14.20;72.93;100394.53;6305946;22;19961;-87
2023/04/19 09:28:26;;;;;;;;;;;;;;;14.29;72.94;100390.69;6304154;22;20262;-88
2023/04/19 09:30:55;;;;;;;;;;;;;;;14.55;73.20;100390.16;6303082;22;19938;-87
2023/04/19 09:33:31;;;;;;;;;;;;;;;14.53;72.57;100396.75;6276780;22;19910;-88
2023/04/19 09:35:58;;;;;;;;;;;;;;;14.43;70.90;100394.38;6304055;22;19911;-86
2023/04/19 09:38:29;;;;;;;;;;;;;;;14.39;73.04;100389.53;6306213;22;19918;-86
2023/04/19 09:41:07;;;;;;;;;;;;;;;14.10;73.97;100402.97;6303193;22;19922;-86
2023/04/19 09:43:33;;;;;;;;;;;;;;;14.08;74.79;100399.59;6304167;22;20345;-86
2023/04/19 09:46:01;;;;;;;;;;;;;;;13.92;75.17;100397.13;6303640;22;19914;-87
2023/04/19 09:48:29;;;;;;;;;;;;;;;13.73;76.91;100393.97;6302896;22;19921;-86
2023/04/19 09:51:00;;;;;;;;;;;;;;;13.47;76.90;100407.13;6301585;22;19983;-86
2023/04/19 09:53:35;;;;;;;;;;;;;;;13.36;77.73;100399.50;6303348;22;19914;-86
2023/04/19 09:56:11;;;;;;;;;;;;;;;12.95;79.90;100400.72;6300113;22;20347;-85
2023/04/19 09:58:37;;;;;;;;;;;;;;;12.91;80.08;100401.25;6315123;22;19918;-84
2023/04/19 10:04:22;;;;;;;;;;;;;;;12.94;79.73;100398.19;6361988;22;19933;-85
2023/04/19 10:06:49;;;;;;;;;;;;;;;13.04;80.14;100401.47;6351058;22;19970;-91
2023/04/19 10:09:16;;;;;;;;;;;;;;;13.01;80.90;100399.13;6308721;22;19909;-90
2023/04/19 10:12:04;;;;;;;;;;;;;;;13.27;80.54;100405.00;6334177;22;19902;-88
2023/04/19 10:14:32;;;;;;;;;;;;;;;13.54;80.27;100396.44;6360858;22;19926;-87
2023/04/19 10:29:03;;;;;;;;;;;;;;;14.15;75.11;100397.00;6356703;22;19936;-90
2023/04/19 10:31:39;;;;;;;;;;;;;;;14.29;75.34;100392.56;6360416;22;19915;-92
2023/04/19 10:34:05;;;;;;;;;;;;;;;14.41;74.17;100396.44;6334370;22;19902;-90
2023/04/19 10:36:36;;;;;;;;;;;;;;;14.28;75.06;100390.88;6332158;22;19903;-87
2023/04/19 10:39:07;;;;;;;;;;;;;;;14.10;72.72;100399.44;6332357;22;20001;-89
2023/04/19 10:47:43;;;;;;;;;;;;;;;14.11;74.20;100406.50;6362183;22;19929;-94
2023/04/19 10:50:15;;;;;;;;;;;;;;;14.41;73.35;100401.84;6331557;22;19930;-91
2023/04/19 10:52:41;;;;;;;;;;;;;;;14.32;73.01;100397.59;6325002;22;20321;-92
2023/04/19 10:55:15;;;;;;;;;;;;;;;14.55;72.28;100398.28;6312086;22;19921;-88
2023/04/19 10:58:00;;;;;;;;;;;;;;;14.49;71.95;100396.31;6311783;22;19922;-91
2023/04/19 11:00:30;;;;;;;;;;;;;;;14.52;71.69;100398.63;6337935;22;19937;-90
2023/04/19 11:03:15;;;;;;;;;;;;;;;;;;;;;
2023/04/19 11:06:06;;;;;;;;;;;;;;;14.73;72.12;100391.56;6333085;22;20308;-91
2023/04/19 11:08:36;;;;;;;;;;;;;;;14.48;72.43;100389.22;6339341;22;19925;-92
2023/04/19 11:11:14;;;;;;;;;;;;;;;14.49;72.36;100390.06;6337313;22;20358;-91
2023/04/19 11:14:02;;;;;;;;;;;;;;;14.33;71.84;100393.88;6336852;22;19997;-90
2023/04/19 11:16:29;;;;;;;;;;;;;;;14.34;72.23;100401.75;6309300;22;19924;-90
2023/04/19 11:22:18;;;;;;;;;;;;;;;13.97;71.60;100397.41;6362327;22;19948;-92
2023/04/19 11:24:50;;;;;;;;;;;;;;;13.77;71.93;100405.25;6333406;22;19902;-93
2023/04/19 11:27:15;;;;;;;;;;;;;;;13.62;72.49;100405.25;6326769;22;19949;-92
2023/04/19 11:29:40;;;;;;;;;;;;;;;13.40;73.78;100406.22;6311531;22;19911;-90
2023/04/19 11:32:08;;;;;;;;;;;;;;;13.59;73.08;100404.81;6312507;22;19914;-92
2023/04/19 11:34:37;;;;;;;;;;;;;;;13.56;73.23;100400.63;6309223;22;20349;-92
2023/04/19 11:37:03;;;;;;;;;;;;;;;13.64;72.10;100405.91;6307377;22;20339;-94
2023/04/19 11:39:30;;;;;;;;;;;;;;;13.49;72.37;100410.50;6337912;22;19921;-91
2023/04/19 11:41:58;;;;;;;;;;;;;;;13.33;73.50;100411.50;6307228;22;19911;-92
2023/04/19 11:44:25;;;;;;;;;;;;;;;13.25;74.37;100415.09;6343086;22;19944;-91
2023/04/19 11:46:57;;;;;;;;;;;;;;;13.10;74.30;100404.25;6312001;22;19915;-92
2023/04/19 11:49:29;;;;;;;;;;;;;;;12.95;75.65;100406.13;6313164;22;19910;-93
2023/04/19 11:52:04;;;;;;;;;;;;;;;13.01;73.88;100405.38;6319129;22;19911;-91
2023/04/19 11:54:36;;;;;;;;;;;;;;;12.93;74.02;100402.75;6314285;22;19944;-92
2023/04/19 11:57:04;;;;;;;;;;;;;;;12.95;74.15;100403.41;6295755;22;19997;-93
2023/04/19 11:59:34;;;;;;;;;;;;;;;12.86;75.49;100402.63;6317904;22;19915;-92
2023/04/19 12:02:10;;;;;;;;;;;;;;;12.97;74.71;100403.22;6336360;22;19926;-91
2023/04/19 12:05:09;;;;;;;;;;;;;;;13.01;73.66;100401.84;6339728;22;19922;-93
2023/04/19 12:07:34;;;;;;;;;;;;;;;13.13;75.23;100400.34;6316145;22;19914;-89
2023/04/19 12:10:09;;;;;;;;;;;;;;;13.24;74.58;100394.50;6333627;22;19921;-90
2023/04/19 12:12:49;;;;;;;;;;;;;;;13.33;74.35;100395.31;6339616;22;19914;-92
2023/04/19 12:15:14;;;;;;;;;;;;;;;13.64;73.32;100388.88;6344279;22;19941;-89
2023/04/19 12:18:00;;;;;;;;;;;;;;;13.81;72.53;100389.50;6307701;22;19918;-88
2023/04/19 12:20:29;;;;;;;;;;;;;;;13.94;71.28;100385.09;6310968;22;19924;-91
2023/04/19 12:22:56;;;;;;;;;;;;;;;14.33;70.97;100377.63;6306606;22;19907;-91
2023/04/19 12:25:32;;;;;;;;;;;;;;;14.59;69.04;100377.09;6302803;22;19948;-88
2023/04/19 12:27:58;;;;;;;;;;;;;;;14.83;69.28;100367.72;6339769;22;19980;-90
2023/04/19 12:30:24;;;;;;;;;;;;;;;15.00;67.47;100368.25;6308947;22;19907;-90
2023/04/19 12:32:54;;;;;;;;;;;;;;;14.86;66.85;100372.72;6308121;22;19919;-91
2023/04/19 12:35:28;;;;;;;;;;;;;;;14.98;66.48;100365.75;6310613;22;19988;-94
2023/04/19 12:37:58;;;;;;;;;;;;;;;15.17;65.84;100363.38;6337691;22;19925;-92
2023/04/19 12:40:26;;;;;;;;;;;;;;;15.37;66.21;100358.91;6310220;22;19915;-89
2023/04/19 12:42:52;;;;;;;;;;;;;;;15.22;65.59;100365.47;6334663;22;19981;-88
2023/04/19 12:45:30;;;;;;;;;;;;;;;15.22;65.68;100365.47;6284286;22;19911;-88
2023/04/19 12:47:55;;;;;;;;;;;;;;;15.26;65.96;100358.63;6337552;22;20335;-84
2023/04/19 12:50:21;;;;;;;;;;;;;;;15.41;64.81;100365.63;6333975;22;20269;-87
2023/04/19 12:52:46;;;;;;;;;;;;;;;15.78;64.59;100360.81;6334296;22;19910;-88
2023/04/19 12:55:12;;;;;;;;;;;;;;;16.05;62.47;100344.63;6308087;22;19914;-86
2023/04/19 12:57:38;;;;;;;;;;;;;;;16.55;60.89;100353.31;6305207;22;19915;-87
2023/04/19 13:00:06;;;;;;;;;;;;;;;16.48;61.59;100355.13;6333537;22;19995;-83
2023/04/19 13:02:32;;;;;;;;;;;;;;;16.55;61.14;100347.00;6280926;22;19910;-85
2023/04/19 13:04:59;;;;;;;;;;;;;;;16.57;60.93;100355.78;6336003;22;19980;-85
2023/04/19 13:07:27;;;;;;;;;;;;;;;16.44;60.47;100348.47;6308156;22;19911;-86
2023/04/19 13:09:54;;;;;;;;;;;;;;;16.29;61.03;100354.06;6310891;22;20273;-84
2023/04/19 13:12:20;;;;;;;;;;;;;;;16.20;61.18;100363.44;6309602;22;19914;-88
2023/04/19 13:14:50;;;;;;;;;;;;;;;16.32;60.66;100350.09;6344626;22;19898;-86
2023/04/19 13:17:15;;;;;;;;;;;;;;;16.47;60.79;100350.78;6327830;22;19945;-85
2023/04/19 13:19:41;;;;;;;;;;;;;;;16.46;60.49;100351.81;6325839;22;19914;-87
2023/04/19 13:22:06;;;;;;;;;;;;;;;16.13;61.22;100358.03;6311923;22;20084;-87
2023/04/19 13:24:33;;;;;;;;;;;;;;;15.95;61.03;100349.63;6310030;22;19915;-87
2023/04/19 13:27:00;;;;;;;;;;;;;;;15.91;61.53;100353.78;6310291;22;19989;-87
2023/04/19 13:29:26;;;;;;;;;;;;;;;16.07;61.10;100361.53;6361187;22;19930;-88
2023/04/19 13:31:51;;;;;;;;;;;;;;;15.90;61.62;100347.53;6323874;22;20055;-86
2023/04/19 13:34:17;;;;;;;;;;;;;;;15.70;61.69;100355.56;6284097;22;20300;-88
2023/04/19 13:36:42;;;;;;;;;;;;;;;15.27;63.42;100347.63;6309452;22;19953;-87
2023/04/19 13:39:10;;;;;;;;;;;;;;;15.09;63.38;100355.41;6334959;22;20343;-87
2023/04/19 13:41:36;;;;;;;;;;;;;;;15.27;63.50;100352.19;6334313;22;19910;-89
2023/04/19 13:44:05;;;;;;;;;;;;;;;15.19;63.85;100345.91;6309333;22;19911;-86
2023/04/19 13:46:32;;;;;;;;;;;;;;;15.39;63.97;100346.00;6334032;22;19915;-86
2023/04/19 13:48:57;;;;;;;;;;;;;;;15.65;62.90;100340.94;6306588;22;19940;-86
2023/04/19 13:51:23;;;;;;;;;;;;;;;15.59;62.58;100334.44;6334770;22;19997;-87
2023/04/19 13:53:48;;;;;;;;;;;;;;;15.58;62.94;100332.75;6305790;22;19941;-86
2023/04/19 13:56:17;;;;;;;;;;;;;;;15.81;61.27;100332.47;6307606;22;20340;-87
2023/04/19 13:58:45;;;;;;;;;;;;;;;15.71;61.20;100327.44;6335720;22;19914;-86
2023/04/19 14:01:11;;;;;;;;;;;;;;;15.67;61.33;100330.72;6334761;22;20025;-87
2023/04/19 14:03:36;;;;;;;;;;;;;;;15.74;61.23;100326.19;6334805;22;19917;-87
2023/04/19 14:06:02;;;;;;;;;;;;;;;15.92;60.50;100328.31;6336353;22;19989;-87
2023/04/19 14:08:28;;;;;;;;;;;;;;;15.85;60.59;100327.47;6332358;22;19921;-88
2023/04/19 14:10:53;;;;;;;;;;;;;;;16.01;59.84;100327.09;6303492;22;20288;-88
2023/04/19 14:13:18;;;;;;;;;;;;;;;16.05;59.80;100322.94;6309775;22;20323;-84
2023/04/19 14:15:44;;;;;;;;;;;;;;;16.32;58.78;100320.28;6285878;22;19930;-87
2023/04/19 14:18:10;;;;;;;;;;;;;;;16.16;59.77;100321.53;6336672;22;19915;-86
2023/04/19 14:20:36;;;;;;;;;;;;;;;16.18;59.30;100314.84;6308285;22;19937;-86
2023/04/19 14:23:01;;;;;;;;;;;;;;;16.24;58.20;100316.72;6334319;22;19994;-84
2023/04/19 14:25:27;;;;;;;;;;;;;;;16.22;58.21;100317.97;6307653;22;20353;-86
2023/04/19 14:27:53;;;;;;;;;;;;;;;16.04;59.47;100315.88;6306492;22;20005;-85
2023/04/19 14:30:18;;;;;;;;;;;;;;;15.83;58.05;100317.69;6307123;22;20280;-86
2023/04/19 14:32:44;;;;;;;;;;;;;;;15.41;58.26;100311.44;6335787;22;19907;-89
2023/04/19 14:35:10;;;;;;;;;;;;;;;15.43;58.12;100318.50;6306753;22;20268;-88
2023/04/19 14:37:36;;;;;;;;;;;;;;;15.52;58.40;100312.75;6334544;22;19937;-88
2023/04/19 14:40:02;;;;;;;;;;;;;;;15.40;58.90;100312.50;6336330;22;19911;-86
2023/04/19 14:42:27;;;;;;;;;;;;;;;15.48;59.14;100316.06;6332529;22;20209;-86
2023/04/19 14:44:52;;;;;;;;;;;;;;;15.32;59.23;100312.63;6305603;22;19918;-87
2023/04/19 14:47:19;;;;;;;;;;;;;;;14.98;60.38;100317.03;6305136;22;19918;-87
2023/04/19 14:49:45;;;;;;;;;;;;;;;14.93;61.18;100319.47;6305260;22;19973;-86
2023/04/19 14:52:11;;;;;;;;;;;;;;;15.07;61.09;100314.16;6304434;22;19915;-86
2023/04/19 14:54:37;;;;;;;;;;;;;;;14.94;61.41;100313.03;6333473;22;19989;-87
2023/04/19 14:57:03;;;;;;;;;;;;;;;15.03;61.78;100312.88;6304767;22;19991;-86
2023/04/19 14:59:29;;;;;;;;;;;;;;;15.03;61.49;100312.88;6278458;22;19938;-86
2023/04/19 15:01:55;;;;;;;;;;;;;;;14.89;61.60;100311.94;6281922;22;19930;-86
2023/04/19 15:04:21;;;;;;;;;;;;;;;14.43;62.51;100310.53;6303907;22;20316;-86
2023/04/19 15:06:46;;;;;;;;;;;;;;;14.38;63.66;100321.09;6278713;22;19911;-87
2023/04/19 15:09:11;;;;;;;;;;;;;;;14.42;64.00;100321.53;6306748;22;19915;-86
2023/04/19 15:11:37;;;;;;;;;;;;;;;14.43;63.77;100317.81;6332969;22;19952;-88
2023/04/19 15:14:02;;;;;;;;;;;;;;;14.30;64.62;100326.63;6306137;22;19914;-90
2023/04/19 15:16:30;;;;;;;;;;;;;;;14.25;64.95;100316.38;6310569;22;19910;-88
2023/04/19 15:18:56;;;;;;;;;;;;;;;14.39;64.81;100314.66;6308660;22;19922;-89
2023/04/19 15:21:23;;;;;;;;;;;;;;;14.22;64.92;100316.78;6307667;22;19911;-88
2023/04/19 15:23:48;;;;;;;;;;;;;;;14.29;64.74;100322.25;6282716;22;20228;-88
2023/04/19 15:26:15;;;;;;;;;;;;;;;14.34;64.76;100325.22;6307624;22;19913;-89
2023/04/19 15:28:42;;;;;;;;;;;;;;;14.18;65.40;100323.59;6336315;22;19922;-87
2023/04/19 15:31:08;;;;;;;;;;;;;;;14.24;64.94;100319.31;6307956;22;19918;-85
2023/04/19 15:33:34;;;;;;;;;;;;;;;14.35;65.16;100322.31;6282078;22;19915;-90
2023/04/19 15:36:03;;;;;;;;;;;;;;;14.04;66.06;100324.50;6311054;22;19918;-92
2023/04/19 15:38:29;;;;;;;;;;;;;;;13.95;66.69;100329.19;6350907;22;19906;-90
2023/04/19 15:40:55;;;;;;;;;;;;;;;13.88;67.19;100321.03;6326209;22;20008;-91
2023/04/19 15:43:20;;;;;;;;;;;;;;;13.83;67.27;100319.91;6310486;22;20358;-89
2023/04/19 15:45:47;;;;;;;;;;;;;;;14.03;67.25;100322.84;6306957;22;19929;-90